createdAt,value
2022-12-11T00:00:26.397Z,101000.75
2022-12-11T00:02:53.385Z,100992.75
2022-12-11T00:05:20.533Z,100999.44
2022-12-11T00:07:47.598Z,100993.34
2022-12-11T00:10:14.497Z,100992.34
2022-12-11T00:12:41.570Z,100996.28
2022-12-11T00:15:09.226Z,100994.34
2022-12-11T00:17:36.562Z,100992.75
2022-12-11T00:20:04.992Z,100993.53
2022-12-11T00:22:31.879Z,100986.50
2022-12-11T00:24:58.742Z,100991.56
2022-12-11T00:27:25.704Z,100992.47
2022-12-11T00:29:52.741Z,100992.19
2022-12-11T00:32:19.801Z,100988.81
2022-12-11T00:34:46.777Z,100990.53
2022-12-11T00:37:14.119Z,100991.13
2022-12-11T00:39:41.218Z,100998.63
2022-12-11T00:42:08.701Z,100988.38
2022-12-11T00:44:36.088Z,100985.25
2022-12-11T00:47:03.937Z,100991.25
2022-12-11T00:49:31.275Z,100990.78
2022-12-11T00:51:58.328Z,100992.19
2022-12-11T00:54:25.214Z,100990.59
2022-12-11T00:56:52.234Z,100985.69
2022-12-11T00:59:19.290Z,100980.44
2022-12-11T01:01:46.326Z,100989.59
2022-12-11T01:04:13.528Z,100979.91
2022-12-11T01:06:40.625Z,100981.13
2022-12-11T01:09:26.233Z,100977.31
2022-12-11T01:11:53.561Z,100964.13
2022-12-11T01:14:20.417Z,100967.97
2022-12-11T01:16:47.530Z,100962.44
2022-12-11T01:19:14.832Z,100963.03
2022-12-11T01:21:41.678Z,100974.91
2022-12-11T01:24:08.528Z,100968.66
2022-12-11T01:26:35.961Z,100972.44
2022-12-11T01:29:03.453Z,100975.63
2022-12-11T01:31:30.549Z,100980.53
2022-12-11T01:33:57.652Z,100979.00
2022-12-11T01:36:24.709Z,100975.34
2022-12-11T01:38:53.581Z,100978.03
2022-12-11T01:41:21.766Z,100982.78
2022-12-11T01:44:08.749Z,100978.56
2022-12-11T01:46:36.582Z,100977.22
2022-12-11T01:49:08.973Z,100974.91
2022-12-11T01:51:49.422Z,100965.75
2022-12-11T01:54:20.275Z,100967.00
2022-12-11T01:56:49.937Z,100965.81
2022-12-11T01:59:23.484Z,100966.63
2022-12-11T02:01:59.140Z,100967.00
2022-12-11T02:04:29.339Z,100955.94
2022-12-11T02:06:56.289Z,100961.53
2022-12-11T02:09:33.288Z,100957.53
2022-12-11T02:12:18.218Z,100965.19
2022-12-11T02:14:57.337Z,100963.69
2022-12-11T02:17:33.667Z,100957.97
2022-12-11T02:20:22.843Z,100958.25
2022-12-11T02:22:52.477Z,100948.78
2022-12-11T02:25:35.855Z,100944.88
2022-12-11T02:28:14.892Z,100954.75
2022-12-11T02:30:47.313Z,100942.28
2022-12-11T02:33:18.347Z,100941.31
2022-12-11T02:35:48.340Z,100945.22
2022-12-11T02:38:27.073Z,100942.09
2022-12-11T02:40:58.035Z,100946.47
2022-12-11T02:43:25.563Z,100933.53
2022-12-11T02:45:54.322Z,100941.66
2022-12-11T02:48:24.338Z,100939.31
2022-12-11T02:50:56.077Z,100935.94
2022-12-11T02:53:28.670Z,100942.56
2022-12-11T02:56:10.864Z,100935.84
2022-12-11T02:58:47.618Z,100940.59
2022-12-11T03:01:14.670Z,100934.00
2022-12-11T03:03:42.317Z,100933.09
2022-12-11T03:06:18.267Z,100935.06
2022-12-11T03:08:45.135Z,100930.25
2022-12-11T03:11:13.353Z,100924.34
2022-12-11T03:13:42.518Z,100928.91
2022-12-11T03:16:41.709Z,100928.97
2022-12-11T03:19:35.438Z,100927.56
2022-12-11T03:22:36.908Z,100926.31
2022-12-11T03:25:10.465Z,100933.09
2022-12-11T03:27:50.549Z,100932.38
2022-12-11T03:30:22.110Z,100931.13
2022-12-11T03:32:58.199Z,100926.38
2022-12-11T03:35:28.272Z,100924.00
2022-12-11T03:38:01.979Z,100922.41
2022-12-11T03:40:35.506Z,100929.78
2022-12-11T03:43:05.144Z,100919.09
2022-12-11T03:45:34.926Z,100923.00
2022-12-11T03:48:03.261Z,100920.69
2022-12-11T03:50:34.260Z,100913.34
2022-12-11T03:53:04.707Z,100913.28
2022-12-11T03:55:34.317Z,100919.69
2022-12-11T03:58:01.358Z,100915.84
2022-12-11T04:00:29.546Z,100917.09
2022-12-11T04:03:15.912Z,100918.44
2022-12-11T04:05:46.469Z,100921.28
2022-12-11T04:08:14.389Z,100911.81
2022-12-11T04:10:42.069Z,100913.34
2022-12-11T04:13:10.669Z,100914.78
2022-12-11T04:15:39.488Z,100918.09
2022-12-11T04:18:26.650Z,100909.34
2022-12-11T04:21:13.572Z,100907.03
2022-12-11T04:23:59.351Z,100903.44
2022-12-11T04:26:26.889Z,100898.28
2022-12-11T04:28:54.397Z,100901.47
2022-12-11T04:31:22.522Z,100897.47
2022-12-11T04:33:49.515Z,100900.25
2022-12-11T04:36:16.922Z,100895.44
2022-12-11T04:38:43.756Z,100893.97
2022-12-11T04:41:14.719Z,100894.69
2022-12-11T04:43:44.908Z,100893.59
2022-12-11T04:46:20.522Z,100885.00
2022-12-11T04:48:53.838Z,100889.09
2022-12-11T04:51:24.063Z,100885.16
2022-12-11T04:53:50.900Z,100889.16
2022-12-11T04:56:17.796Z,100887.91
2022-12-11T04:58:46.483Z,100885.72
2022-12-11T05:01:16.456Z,100887.72
2022-12-11T05:03:43.727Z,100882.41
2022-12-11T05:06:12.081Z,100883.53
2022-12-11T05:08:41.625Z,100890.16
2022-12-11T05:11:12.041Z,100887.38
2022-12-11T05:13:40.114Z,100887.72
2022-12-11T05:16:09.591Z,100887.19
2022-12-11T05:18:36.796Z,100887.19
2022-12-11T05:21:07.194Z,100884.25
2022-12-11T05:23:34.583Z,100889.97
2022-12-11T05:26:05.389Z,100884.59
2022-12-11T05:28:35.596Z,100884.59
2022-12-11T05:31:09.263Z,100889.25
2022-12-11T05:33:36.291Z,100888.91
2022-12-11T05:36:03.977Z,100883.63
2022-12-11T05:38:30.964Z,100885.25
2022-12-11T05:41:06.552Z,100886.31
2022-12-11T05:43:35.931Z,100873.47
2022-12-11T05:46:08.185Z,100879.81
2022-12-11T05:48:35.312Z,100875.44
2022-12-11T05:51:02.931Z,100884.06
2022-12-11T05:53:30.127Z,100877.47
2022-12-11T05:56:06.104Z,100872.47
2022-12-11T05:58:34.423Z,100872.84
2022-12-11T06:01:02.860Z,100876.84
2022-12-11T06:03:29.860Z,100875.25
2022-12-11T06:05:56.844Z,100872.06
2022-12-11T06:08:23.727Z,100865.75
2022-12-11T06:10:50.876Z,100870.56
2022-12-11T06:13:18.280Z,100873.91
2022-12-11T06:15:45.316Z,100873.34
2022-12-11T06:18:12.166Z,100884.31
2022-12-11T06:20:39.020Z,100877.69
2022-12-11T06:23:06.043Z,100875.69
2022-12-11T06:25:33.473Z,100871.13
2022-12-11T06:28:01.002Z,100883.63
2022-12-11T06:30:38.652Z,100881.03
2022-12-11T06:33:06.495Z,100879.06
2022-12-11T06:35:40.057Z,100885.41
2022-12-11T06:38:10.406Z,100886.19
2022-12-11T06:40:38.089Z,100885.66
2022-12-11T06:43:04.950Z,100892.38
2022-12-11T06:45:31.974Z,100886.66
2022-12-11T06:47:58.819Z,100881.22
2022-12-11T06:50:26.299Z,100881.66
2022-12-11T06:52:53.170Z,100879.34
2022-12-11T06:55:19.999Z,100881.91
2022-12-11T06:57:47.016Z,100874.50
2022-12-11T07:00:14.465Z,100875.75
2022-12-11T07:02:41.527Z,100884.56
2022-12-11T07:05:08.796Z,100877.63
2022-12-11T07:07:35.950Z,100881.59
2022-12-11T07:10:08.037Z,100875.06
2022-12-11T07:12:36.702Z,100872.31
2022-12-11T07:15:05.108Z,100877.69
2022-12-11T07:17:32.265Z,100883.72
2022-12-11T07:19:59.105Z,100883.00
2022-12-11T07:22:26.293Z,100887.00
2022-12-11T07:24:53.103Z,100889.16
2022-12-11T07:27:19.928Z,100887.81
2022-12-11T07:29:46.965Z,100890.41
2022-12-11T07:32:14.463Z,100887.25
2022-12-11T07:34:41.376Z,100885.00
2022-12-11T07:37:08.459Z,100887.56
2022-12-11T07:39:35.278Z,100889.84
2022-12-11T07:42:02.143Z,100905.56
2022-12-11T07:44:29.324Z,100901.72
2022-12-11T07:46:56.472Z,100906.53
2022-12-11T07:49:23.493Z,100910.28
2022-12-11T07:51:50.515Z,100911.53
2022-12-11T07:54:17.617Z,100920.00
2022-12-11T07:56:51.188Z,100915.09
2022-12-11T07:59:20.955Z,100915.72
2022-12-11T08:01:48.163Z,100911.72
2022-12-11T08:04:15.739Z,100911.91
2022-12-11T08:06:43.156Z,100914.03
2022-12-11T08:09:20.734Z,100910.19
2022-12-11T08:11:52.070Z,100916.16
2022-12-11T08:14:19.698Z,100916.78
2022-12-11T08:16:46.950Z,100916.16
2022-12-11T08:19:14.988Z,100907.34
2022-12-11T08:21:41.964Z,100907.53
2022-12-11T08:24:20.109Z,100903.34
2022-12-11T08:26:48.315Z,100898.13
2022-12-11T08:29:15.317Z,100904.03
2022-12-11T08:31:42.648Z,100896.81
2022-12-11T08:34:13.668Z,100903.28
2022-12-11T08:36:41.183Z,100897.69
2022-12-11T08:39:08.532Z,100901.34
2022-12-11T08:41:36.029Z,100901.16
2022-12-11T08:44:02.942Z,100907.56
2022-12-11T08:46:32.247Z,100896.56
2022-12-11T08:48:59.439Z,100902.50
2022-12-11T08:51:28.808Z,100899.53
2022-12-11T08:53:58.677Z,100902.38
2022-12-11T08:56:27.281Z,100895.97
2022-12-11T08:58:54.526Z,100905.69
2022-12-11T09:01:24.620Z,100904.72
2022-12-11T09:03:55.167Z,100903.72
2022-12-11T09:06:25.314Z,100908.47
2022-12-11T09:08:54.232Z,100907.31
2022-12-11T09:11:24.536Z,100906.94
2022-12-11T09:13:52.424Z,100903.72
2022-12-11T09:16:22.444Z,100900.34
2022-12-11T09:18:51.585Z,100897.22
2022-12-11T09:21:22.362Z,100892.88
2022-12-11T09:23:53.410Z,100891.78
2022-12-11T09:26:20.372Z,100889.44
2022-12-11T09:28:48.323Z,100895.78
2022-12-11T09:31:23.456Z,100898.63
2022-12-11T09:33:52.036Z,100900.69
2022-12-11T09:36:19.063Z,100902.94
2022-12-11T09:38:46.346Z,100899.41
2022-12-11T09:41:22.428Z,100901.16
2022-12-11T09:44:12.284Z,100898.25
2022-12-11T09:46:41.222Z,100903.66
2022-12-11T09:49:28.608Z,100916.78
2022-12-11T09:52:05.794Z,100899.81
2022-12-11T09:54:34.252Z,100903.22
2022-12-11T09:57:37.443Z,100904.09
2022-12-11T10:00:24.366Z,100901.75
2022-12-11T10:03:02.496Z,100904.00
2022-12-11T10:05:48.373Z,100901.00
2022-12-11T10:08:34.327Z,100904.97
2022-12-11T10:11:10.405Z,100901.00
2022-12-11T10:14:15.061Z,100894.25
2022-12-11T10:16:45.179Z,100905.31
2022-12-11T10:19:22.793Z,100892.41
2022-12-11T10:21:52.536Z,100897.06
2022-12-11T10:24:50.127Z,100891.53
2022-12-11T10:27:16.553Z,100885.00
2022-12-11T10:29:43.623Z,100886.66
2022-12-11T10:32:24.560Z,100888.06
2022-12-11T10:35:02.723Z,100884.00
2022-12-11T10:37:29.797Z,100895.97
2022-12-11T10:39:56.696Z,100897.38
2022-12-11T10:42:24.077Z,100891.53
2022-12-11T10:44:58.848Z,100884.81
2022-12-11T10:47:26.124Z,100886.97
2022-12-11T10:49:59.068Z,100894.34
2022-12-11T10:52:31.743Z,100890.00
2022-12-11T10:55:03.269Z,100886.59
2022-12-11T10:57:36.994Z,100884.44
2022-12-11T11:00:08.972Z,100875.41
2022-12-11T11:02:41.648Z,100863.66
2022-12-11T11:05:26.803Z,100862.97
2022-12-11T11:08:23.562Z,100861.88
2022-12-11T11:11:01.459Z,100850.75
2022-12-11T11:13:32.642Z,100849.81
2022-12-11T11:16:04.547Z,100854.81
2022-12-11T11:18:32.248Z,100848.72
2022-12-11T11:21:00.765Z,100851.78
2022-12-11T11:23:29.584Z,100843.94
2022-12-11T11:26:09.386Z,100848.28
2022-12-11T11:28:40.334Z,100848.41
2022-12-11T11:31:13.701Z,100847.41
2022-12-11T11:33:58.074Z,100844.34
2022-12-11T11:36:28.273Z,100844.25
2022-12-11T11:39:19.797Z,100845.84
2022-12-11T11:41:57.292Z,100836.97
2022-12-11T11:44:36.905Z,100846.09
2022-12-11T11:47:12.627Z,100835.41
2022-12-11T11:50:15.749Z,100829.31
2022-12-11T11:53:02.312Z,100834.25
2022-12-11T11:56:01.878Z,100828.91
2022-12-11T11:58:59.937Z,100829.09
2022-12-11T12:01:27.554Z,100824.88
2022-12-11T12:03:56.303Z,100826.94
2022-12-11T12:06:59.794Z,100821.97
2022-12-11T12:09:51.576Z,100817.00
2022-12-11T12:12:57.540Z,100813.91
2022-12-11T12:15:36.378Z,100818.59
2022-12-11T12:18:21.554Z,100820.75
2022-12-11T12:21:00.035Z,100813.16
2022-12-11T12:23:49.587Z,100813.16
2022-12-11T12:26:39.641Z,100805.34
2022-12-11T12:29:58.177Z,100804.03
2022-12-11T12:32:25.627Z,100803.22
2022-12-11T12:35:14.082Z,100805.22
2022-12-11T12:38:03.440Z,100797.84
2022-12-11T12:40:41.112Z,100795.13
2022-12-11T12:43:34.157Z,100792.44
2022-12-11T12:46:19.721Z,100793.91
2022-12-11T12:48:46.640Z,100802.53
2022-12-11T12:51:16.056Z,100797.53
2022-12-11T12:53:53.179Z,100800.91
2022-12-11T12:56:22.559Z,100792.91
2022-12-11T12:58:49.633Z,100796.06
2022-12-11T13:01:24.035Z,100794.47
2022-12-11T13:03:55.716Z,100795.31
2022-12-11T13:06:40.534Z,100788.16
2022-12-11T13:09:13.699Z,100792.91
2022-12-11T13:11:40.975Z,100797.06
2022-12-11T13:14:13.498Z,100795.84
2022-12-11T13:16:43.703Z,100803.72
2022-12-11T13:19:22.527Z,100800.88
2022-12-11T13:22:17.530Z,100804.16
2022-12-11T13:24:50.217Z,100808.00
2022-12-11T13:27:26.161Z,100808.97
2022-12-11T13:30:25.400Z,100811.56
2022-12-11T13:33:06.413Z,100804.25
2022-12-11T13:35:35.309Z,100810.81
2022-12-11T13:38:19.067Z,100807.19
2022-12-11T13:40:53.452Z,100807.06
2022-12-11T13:43:30.976Z,100811.81
2022-12-11T13:46:03.137Z,100805.19
2022-12-11T13:48:41.113Z,100800.44
2022-12-11T13:51:08.134Z,100804.63
2022-12-11T13:53:35.006Z,100800.38
2022-12-11T13:56:07.597Z,100806.16
2022-12-11T13:58:38.486Z,100811.13
2022-12-11T14:01:15.611Z,100804.69
2022-12-11T14:03:58.372Z,100808.16
2022-12-11T14:06:28.396Z,100819.50
2022-12-11T14:09:00.253Z,100820.88
2022-12-11T14:11:34.950Z,100817.50
2022-12-11T14:14:06.383Z,100805.09
2022-12-11T14:16:34.293Z,100813.13
2022-12-11T14:19:08.346Z,100815.81
2022-12-11T14:21:36.423Z,100816.38
2022-12-11T14:24:06.444Z,100819.78
2022-12-11T14:26:38.599Z,100818.19
2022-12-11T14:29:06.903Z,100826.16
2022-12-11T14:31:42.811Z,100821.00
2022-12-11T14:34:20.483Z,100821.34
2022-12-11T14:36:49.370Z,100831.72
2022-12-11T14:39:25.591Z,100825.56
2022-12-11T14:42:20.154Z,100835.25
2022-12-11T14:45:16.685Z,100830.09
2022-12-11T14:47:44.769Z,100838.41
2022-12-11T14:50:27.406Z,100835.47
2022-12-11T14:53:01.932Z,100840.34
2022-12-11T14:55:34.820Z,100837.38
2022-12-11T14:58:07.530Z,100833.59
2022-12-11T15:00:36.973Z,100837.81
2022-12-11T15:03:20.197Z,100840.13
2022-12-11T15:05:54.890Z,100834.75
2022-12-11T15:08:31.813Z,100837.88
2022-12-11T15:11:13.149Z,100847.19
2022-12-11T15:14:04.673Z,100847.84
2022-12-11T15:16:37.442Z,100849.22
2022-12-11T15:19:05.249Z,100849.97
2022-12-11T15:21:35.836Z,100859.91
2022-12-11T15:24:05.962Z,100852.72
2022-12-11T15:26:45.549Z,100859.25
2022-12-11T15:29:30.406Z,100858.84
2022-12-11T15:32:09.653Z,100857.25
2022-12-11T15:34:47.903Z,100861.19
2022-12-11T15:37:19.708Z,100860.41
2022-12-11T15:39:46.603Z,100858.00
2022-12-11T15:42:20.871Z,100853.63
2022-12-11T15:44:47.995Z,100849.09
2022-12-11T15:47:19.637Z,100846.84
2022-12-11T15:49:46.891Z,100852.16
2022-12-11T15:52:13.918Z,100852.22
2022-12-11T15:54:41.038Z,100858.00
2022-12-11T15:57:16.487Z,100846.59
2022-12-11T15:59:47.454Z,100845.00
2022-12-11T16:02:15.250Z,100844.41
2022-12-11T16:04:42.276Z,100842.53
2022-12-11T16:07:18.874Z,100847.16
2022-12-11T16:09:47.003Z,100844.41
2022-12-11T16:12:14.285Z,100847.94
2022-12-11T16:14:42.155Z,100841.19
2022-12-11T16:17:10.911Z,100846.75
2022-12-11T16:19:38.982Z,100845.50
2022-12-11T16:22:08.517Z,100845.75
2022-12-11T16:24:35.953Z,100847.94
2022-12-11T16:27:03.810Z,100847.03
2022-12-11T16:29:41.287Z,100844.44
2022-12-11T16:32:08.659Z,100843.34
2022-12-11T16:34:37.488Z,100843.91
2022-12-11T16:37:08.355Z,100844.91
2022-12-11T16:39:37.486Z,100852.28
2022-12-11T16:42:05.966Z,100857.00
2022-12-11T16:44:33.358Z,100852.66
2022-12-11T16:47:00.514Z,100846.66
2022-12-11T16:49:27.617Z,100846.25
2022-12-11T16:51:54.678Z,100849.03
2022-12-11T16:54:21.771Z,100844.44
2022-12-11T16:56:48.682Z,100845.06
2022-12-11T16:59:15.610Z,100853.06
2022-12-11T17:01:42.697Z,100853.81
2022-12-11T17:04:10.206Z,100852.50
2022-12-11T17:06:37.119Z,100847.41
2022-12-11T17:09:04.004Z,100849.88
2022-12-11T17:11:31.108Z,100842.59
2022-12-11T17:13:59.736Z,100847.41
2022-12-11T17:16:33.839Z,100847.59
2022-12-11T17:19:02.899Z,100851.34
2022-12-11T17:21:30.157Z,100844.81
2022-12-11T17:23:57.232Z,100850.47
2022-12-11T17:26:25.370Z,100843.94
2022-12-11T17:28:52.453Z,100844.19
2022-12-11T17:31:19.955Z,100840.63
2022-12-11T17:33:48.036Z,100843.59
2022-12-11T17:36:17.317Z,100839.38
2022-12-11T17:38:45.284Z,100843.16
2022-12-11T17:41:20.353Z,100840.63
2022-12-11T17:43:52.867Z,100840.38
2022-12-11T17:46:21.205Z,100846.53
2022-12-11T17:48:48.870Z,100846.53
2022-12-11T17:51:23.648Z,100847.78
2022-12-11T17:53:51.602Z,100848.13
2022-12-11T17:56:18.641Z,100840.81
2022-12-11T17:58:45.768Z,100840.63
2022-12-11T18:01:13.236Z,100846.91
2022-12-11T18:03:41.317Z,100842.78
2022-12-11T18:06:14.684Z,100845.13
2022-12-11T18:08:42.774Z,100847.88
2022-12-11T18:11:16.703Z,100854.69
2022-12-11T18:13:45.448Z,100847.53
2022-12-11T18:16:17.472Z,100846.81
2022-12-11T18:18:46.281Z,100838.47
2022-12-11T18:21:25.556Z,100850.84
2022-12-11T18:23:53.117Z,100845.69
2022-12-11T18:26:20.860Z,100842.44
2022-12-11T18:28:49.350Z,100845.22
2022-12-11T18:31:17.855Z,100848.63
2022-12-11T18:33:46.118Z,100842.91
2022-12-11T18:36:15.625Z,100848.06
2022-12-11T18:38:43.132Z,100842.97
2022-12-11T18:41:13.072Z,100840.31
2022-12-11T18:43:40.689Z,100840.91
2022-12-11T18:46:10.138Z,100836.72
2022-12-11T18:48:37.333Z,100840.56
2022-12-11T18:51:11.008Z,100844.19
2022-12-11T18:53:41.452Z,100841.75
2022-12-11T18:56:11.846Z,100837.44
2022-12-11T18:58:39.438Z,100839.38
2022-12-11T19:01:13.951Z,100846.09
2022-12-11T19:03:41.254Z,100836.44
2022-12-11T19:06:18.124Z,100834.22
2022-12-11T19:08:45.437Z,100837.84
2022-12-11T19:11:18.491Z,100836.69
2022-12-11T19:13:45.995Z,100833.72
2022-12-11T19:16:18.449Z,100826.69
2022-12-11T19:18:46.258Z,100821.06
2022-12-11T19:21:15.375Z,100829.88
2022-12-11T19:23:43.661Z,100833.25
2022-12-11T19:26:13.544Z,100834.28
2022-12-11T19:28:40.688Z,100830.91
2022-12-11T19:31:13.774Z,100832.88
2022-12-11T19:33:42.129Z,100834.72
2022-12-11T19:36:12.241Z,100837.94
2022-12-11T19:38:41.521Z,100833.72
2022-12-11T19:41:21.674Z,100836.31
2022-12-11T19:43:50.785Z,100838.91
2022-12-11T19:46:19.149Z,100848.63
2022-12-11T19:48:49.359Z,100847.78
2022-12-11T19:51:22.992Z,100840.88
2022-12-11T19:53:50.765Z,100845.44
2022-12-11T19:56:19.851Z,100845.00
2022-12-11T19:58:48.098Z,100836.19
2022-12-11T20:01:28.842Z,100844.25
2022-12-11T20:03:59.979Z,100846.41
2022-12-11T20:06:28.584Z,100847.63
2022-12-11T20:08:55.837Z,100845.59
2022-12-11T20:11:23.054Z,100848.53
2022-12-11T20:13:51.233Z,100844.44
2022-12-11T20:16:28.888Z,100858.22
2022-12-11T20:19:06.751Z,100854.50
2022-12-11T20:21:34.477Z,100847.88
2022-12-11T20:24:01.604Z,100846.03
2022-12-11T20:26:30.908Z,100846.22
2022-12-11T20:28:58.062Z,100850.41
2022-12-11T20:31:26.264Z,100846.03
2022-12-11T20:33:56.205Z,100849.59
2022-12-11T20:36:25.270Z,100847.63
2022-12-11T20:38:52.915Z,100845.03
2022-12-11T20:41:22.820Z,100846.47
2022-12-11T20:43:50.840Z,100840.91
2022-12-11T20:46:18.314Z,100843.50
2022-12-11T20:48:46.541Z,100837.91
2022-12-11T20:51:19.690Z,100838.00
2022-12-11T20:53:57.372Z,100836.41
2022-12-11T20:56:27.799Z,100840.00
2022-12-11T20:58:55.891Z,100834.28
2022-12-11T21:01:25.548Z,100837.16
2022-12-11T21:03:53.448Z,100838.41
2022-12-11T21:06:46.817Z,100836.06
2022-12-11T21:09:19.167Z,100836.78
2022-12-11T21:11:46.163Z,100842.69
2022-12-11T21:14:13.410Z,100846.44
2022-12-11T21:16:40.494Z,100848.81
2022-12-11T21:19:12.447Z,100843.50
2022-12-11T21:21:45.194Z,100843.56
2022-12-11T21:24:15.546Z,100848.56
2022-12-11T21:26:42.958Z,100841.44
2022-12-11T21:29:10.015Z,100844.13
2022-12-11T21:31:36.792Z,100837.34
2022-12-11T21:34:03.922Z,100835.50
2022-12-11T21:36:31.189Z,100833.31
2022-12-11T21:38:59.176Z,100828.78
2022-12-11T21:41:26.811Z,100828.75
2022-12-11T21:45:07.198Z,100835.38
2022-12-11T21:46:43.500Z,100829.66
2022-12-11T21:49:10.611Z,100830.38
2022-12-11T21:51:44.048Z,100843.72
2022-12-11T21:54:18.103Z,100837.75
2022-12-11T21:56:45.964Z,100834.81
2022-12-11T21:59:13.524Z,100839.69
2022-12-11T22:01:43.758Z,100847.69
2022-12-11T22:04:11.497Z,100844.84
2022-12-11T22:06:41.852Z,100853.13
2022-12-11T22:09:10.616Z,100846.56
2022-12-11T22:11:37.853Z,100853.50
2022-12-11T22:14:06.665Z,100858.38
2022-12-11T22:16:34.761Z,100858.81
2022-12-11T22:19:01.811Z,100853.84
2022-12-11T22:21:29.031Z,100861.00
2022-12-11T22:23:56.319Z,100872.41
2022-12-11T22:26:26.344Z,100873.84
2022-12-11T22:28:54.391Z,100873.13
2022-12-11T22:31:26.227Z,100869.03
2022-12-11T22:33:54.786Z,100869.81
2022-12-11T22:36:23.670Z,100869.63
2022-12-11T22:38:51.333Z,100870.69
2022-12-11T22:41:28.695Z,100876.66
2022-12-11T22:43:56.630Z,100867.72
2022-12-11T22:46:26.950Z,100860.88
2022-12-11T22:48:54.911Z,100873.47
2022-12-11T22:51:22.864Z,100863.38
2022-12-11T22:53:50.202Z,100870.88
2022-12-11T22:56:17.197Z,100863.22
2022-12-11T22:58:44.256Z,100865.44
2022-12-11T23:01:14.432Z,100864.97
2022-12-11T23:03:41.502Z,100862.00
2022-12-11T23:06:11.379Z,100866.56
2022-12-11T23:08:39.985Z,100867.97
2022-12-11T23:11:21.160Z,100861.03
2022-12-11T23:13:48.281Z,100864.25
2022-12-11T23:16:15.390Z,100865.84
2022-12-11T23:18:43.177Z,100872.00
2022-12-11T23:21:11.671Z,100877.19
2022-12-11T23:23:39.305Z,100874.41
2022-12-11T23:26:09.142Z,100882.34
2022-12-11T23:28:36.205Z,100873.59
2022-12-11T23:31:03.639Z,100871.03
2022-12-11T23:33:30.697Z,100868.25
2022-12-11T23:35:58.622Z,100869.84
2022-12-11T23:38:26.232Z,100874.22
2022-12-11T23:40:53.565Z,100869.44
2022-12-11T23:43:21.864Z,100878.16
2022-12-11T23:45:49.183Z,100873.81
2022-12-11T23:48:16.508Z,100876.81
2022-12-11T23:50:44.855Z,100874.59
2022-12-11T23:53:12.225Z,100872.63
2022-12-11T23:55:44.370Z,100874.59
2022-12-11T23:58:11.763Z,100873.59
